ROMMA est une association bénévole à but non lucratif. Votre soutien est indispensable : ADHERER à ROMMA ou FAIRE un DON

Tourrette-Levens - (06, Alpes-Maritimes)

Côte-d'Azur (416 m)   Longitude: 07° 16' 12" E   Latitude: 43° 47' 24" N Station partenaire n°152
 

Détail journalier du     <<     >>

Température Precipitation Humidité Pression Vent Dir Rafale Dir. rafale Ensol.
Heure (°C) (mm) (%) (hPa) (km/h) (km/h) (min)
01:00 7.3091100805O0
02:00 6.70931008000
03:00 7.3092100806S0
04:00 7.6091100803NNO0
05:00 6.30911007000
06:00 6.40921007000
07:00 6.1091100705OSO0
08:00 6.4092100803OSO0
09:00 8.8086100703OSO18
10:00 10.707510072ESE16S45
11:00 10.706910085SE16E13
12:00 11.605610086SSE23S9
13:00 11.705810089SE26S12
14:00 10.905510089SSE27SSE0
15:00 10.606010087S27S0
16:00 10.006910088SSE24SSE0
17:00 9.807410087SSE23S0
18:00 9.607410088SSE21SE0
19:00 8.9069100810SSE34SSE0
20:00 6.70.28610083SSE18SSE0
21:00 6.20.68910083ONO16NNO0
22:00 5.91.69110093ONO15NNO0
23:00 5.61.89310091NNO11N0
minuit 5.61.49210093NNO23NNO0

Graphique du 06-04-2019

 

Serveur OMMA